createdAt,value
2022-11-24T00:00:00.913Z,100064.75
2022-11-24T00:05:07.036Z,100061.73
2022-11-24T00:10:10.431Z,100069.90
2022-11-24T00:15:13.515Z,100066.21
2022-11-24T00:20:16.476Z,100063.70
2022-11-24T00:25:19.312Z,100065.44
2022-11-24T00:30:22.139Z,100063.85
2022-11-24T00:35:24.977Z,100063.28
2022-11-24T00:40:33.587Z,100079.08
2022-11-24T00:45:37.973Z,100074.19
2022-11-24T00:50:46.202Z,100064.62
2022-11-24T00:55:52.525Z,100063.27
2022-11-24T01:00:56.456Z,100055.88
2022-11-24T01:06:19.049Z,100059.41
2022-11-24T01:11:27.561Z,100062.52
2022-11-24T01:16:33.375Z,100067.32
2022-11-24T01:21:36.525Z,100062.05
2022-11-24T01:26:41.166Z,100058.06
2022-11-24T01:31:46.713Z,100061.89
2022-11-24T01:36:49.657Z,100067.09
2022-11-24T01:41:52.957Z,100064.10
2022-11-24T01:47:01.027Z,100061.56
2022-11-24T01:52:17.948Z,100066.66
2022-11-24T01:57:30.555Z,100064.88
2022-11-24T02:02:33.780Z,100065.83
2022-11-24T02:07:36.674Z,100068.08
2022-11-24T02:12:41.140Z,100066.15
2022-11-24T02:17:46.392Z,100063.00
2022-11-24T02:23:12.904Z,100064.67
2022-11-24T02:28:19.045Z,100056.35
2022-11-24T02:33:22.023Z,100058.05
2022-11-24T02:38:30.865Z,100055.52
2022-11-24T02:43:39.437Z,100053.06
2022-11-24T02:48:42.901Z,100051.45
2022-11-24T02:53:45.910Z,100052.44
2022-11-24T02:58:49.351Z,100056.33
2022-11-24T03:03:52.163Z,100051.85
2022-11-24T03:08:54.964Z,100054.05
2022-11-24T03:13:57.750Z,100052.77
2022-11-24T03:19:00.760Z,100052.86
2022-11-24T03:24:03.949Z,100053.95
2022-11-24T03:29:06.688Z,100054.77
2022-11-24T03:34:09.877Z,100057.81
2022-11-24T03:39:12.759Z,100058.91
2022-11-24T03:44:15.562Z,100057.70
2022-11-24T03:49:18.531Z,100066.23
2022-11-24T03:54:22.836Z,100064.17
2022-11-24T03:59:26.394Z,100065.98
2022-11-24T04:04:29.156Z,100074.02
2022-11-24T04:09:31.938Z,100077.73
2022-11-24T04:14:35.136Z,100072.71
2022-11-24T04:19:38.213Z,100061.26
2022-11-24T04:24:41.237Z,100072.00
2022-11-24T04:29:46.253Z,100073.35
2022-11-24T04:34:49.333Z,100074.41
2022-11-24T04:39:52.363Z,100083.77
2022-11-24T04:44:56.515Z,100085.66
2022-11-24T04:50:01.175Z,100086.73
2022-11-24T04:55:05.626Z,100089.29
2022-11-24T05:00:09.366Z,100087.93
2022-11-24T05:05:12.721Z,100096.18
2022-11-24T05:10:35.234Z,100102.23
2022-11-24T05:15:40.502Z,100104.21
2022-11-24T05:20:44.869Z,100099.52
2022-11-24T05:25:48.153Z,100093.56
2022-11-24T05:30:51.057Z,100103.48
2022-11-24T05:35:54.623Z,100107.63
2022-11-24T05:41:05.202Z,100108.88
2022-11-24T05:46:08.039Z,100112.82
2022-11-24T05:51:13.456Z,100120.77
2022-11-24T05:56:17.098Z,100124.46
2022-11-24T06:01:19.896Z,100127.07
2022-11-24T06:06:23.347Z,100135.25
2022-11-24T06:11:27.651Z,100136.91
2022-11-24T06:16:30.654Z,100137.57
2022-11-24T06:21:34.268Z,100142.52
2022-11-24T06:26:37.095Z,100136.84
2022-11-24T06:31:41.941Z,100143.36
2022-11-24T06:36:45.011Z,100148.88
2022-11-24T06:41:50.418Z,100146.70
2022-11-24T06:46:53.689Z,100157.01
2022-11-24T06:51:56.995Z,100155.80
2022-11-24T06:57:00.838Z,100151.14
2022-11-24T07:02:05.231Z,100159.85
2022-11-24T07:07:08.251Z,100159.96
2022-11-24T07:12:11.160Z,100158.95
2022-11-24T07:17:15.293Z,100165.52
2022-11-24T07:22:18.316Z,100165.45
2022-11-24T07:27:21.164Z,100169.41
2022-11-24T07:32:25.429Z,100174.88
2022-11-24T07:37:31.531Z,100173.43
2022-11-24T07:42:35.029Z,100171.32
2022-11-24T07:47:42.391Z,100170.04
2022-11-24T07:52:45.298Z,100167.52
2022-11-24T07:57:48.193Z,100178.87
2022-11-24T08:02:50.997Z,100188.35
2022-11-24T08:07:54.047Z,100192.98
2022-11-24T08:13:01.341Z,100191.30
2022-11-24T08:18:05.789Z,100194.29
2022-11-24T08:23:09.088Z,100190.27
2022-11-24T08:28:12.022Z,100190.66
2022-11-24T08:33:15.163Z,100194.95
2022-11-24T08:38:17.962Z,100201.27
2022-11-24T08:43:20.806Z,100198.58
2022-11-24T08:48:23.675Z,100199.84
2022-11-24T08:53:27.160Z,100195.11
2022-11-24T08:58:30.219Z,100200.99
2022-11-24T09:03:33.171Z,100203.35
2022-11-24T09:08:37.164Z,100206.48
2022-11-24T09:13:40.276Z,100213.15
2022-11-24T09:18:43.812Z,100218.46
2022-11-24T09:23:50.279Z,100221.63
2022-11-24T09:28:54.708Z,100228.35
2022-11-24T09:33:57.912Z,100231.15
2022-11-24T09:39:00.814Z,100241.52
2022-11-24T09:44:10.168Z,100243.61
2022-11-24T09:49:18.005Z,100246.46
2022-11-24T09:54:25.090Z,100247.38
2022-11-24T09:59:28.685Z,100246.14
2022-11-24T10:04:36.926Z,100247.58
2022-11-24T10:09:55.442Z,100251.36
2022-11-24T10:15:09.326Z,100251.05
2022-11-24T10:20:44.873Z,100245.41
2022-11-24T10:26:00.778Z,100238.89
2022-11-24T10:31:54.009Z,100237.05
2022-11-24T10:37:11.122Z,100241.48
2022-11-24T10:42:37.027Z,100237.31
2022-11-24T10:47:41.907Z,100236.33
2022-11-24T10:53:26.468Z,100238.89
2022-11-24T10:58:39.885Z,100242.88
2022-11-24T11:03:48.041Z,100240.40
2022-11-24T11:09:13.838Z,100237.92
2022-11-24T11:14:31.848Z,100244.25
2022-11-24T11:19:49.549Z,100248.70
2022-11-24T11:25:11.731Z,100254.66
2022-11-24T11:35:40.779Z,100257.42
2022-11-24T11:40:43.912Z,100258.00
2022-11-24T11:46:11.898Z,100261.16
2022-11-24T11:51:57.290Z,100267.70
2022-11-24T11:57:49.984Z,100276.99
2022-11-24T12:03:25.465Z,100275.31
2022-11-24T12:14:43.883Z,100271.39
2022-11-24T12:20:41.661Z,100266.81
2022-11-24T12:26:33.434Z,100262.27
2022-11-24T12:31:52.047Z,100263.67
2022-11-24T12:37:24.265Z,100264.05
2022-11-24T12:42:40.375Z,100267.48
2022-11-24T12:47:52.773Z,100263.00
2022-11-24T12:53:28.610Z,100262.56
2022-11-24T12:59:13.239Z,100257.48
2022-11-24T13:04:36.134Z,100255.81
2022-11-24T13:10:30.140Z,100256.15
2022-11-24T13:16:13.180Z,100256.45
2022-11-24T13:21:30.959Z,100262.88
2022-11-24T13:26:43.449Z,100259.13
2022-11-24T13:31:47.550Z,100261.13
2022-11-24T13:36:53.802Z,100259.98
2022-11-24T13:42:00.397Z,100263.08
2022-11-24T13:47:35.200Z,100262.95
2022-11-24T13:52:42.202Z,100268.35
2022-11-24T13:58:11.368Z,100273.38
2022-11-24T14:03:26.055Z,100273.27
2022-11-24T14:08:32.361Z,100282.49
2022-11-24T14:13:35.334Z,100283.20
2022-11-24T14:18:40.321Z,100289.15
2022-11-24T14:23:51.317Z,100285.75
2022-11-24T14:28:54.226Z,100287.16
2022-11-24T14:34:12.457Z,100290.88
2022-11-24T14:39:19.847Z,100298.30
2022-11-24T14:44:24.322Z,100308.27
2022-11-24T14:49:27.208Z,100309.30
2022-11-24T14:54:30.126Z,100311.69
2022-11-24T14:59:36.327Z,100313.84
2022-11-24T15:05:02.849Z,100314.61
2022-11-24T15:10:19.324Z,100320.70
2022-11-24T15:15:26.391Z,100325.16
2022-11-24T15:20:35.361Z,100330.39
2022-11-24T15:25:39.210Z,100337.17
2022-11-24T15:30:42.243Z,100348.22
2022-11-24T15:35:45.860Z,100355.65
2022-11-24T15:40:51.135Z,100357.16
2022-11-24T15:45:53.967Z,100362.16
2022-11-24T15:50:58.135Z,100358.26
2022-11-24T15:56:02.512Z,100363.49
2022-11-24T16:01:05.581Z,100365.38
2022-11-24T16:06:15.015Z,100362.16
2022-11-24T16:11:20.771Z,100369.89
2022-11-24T16:16:25.403Z,100368.55
2022-11-24T16:21:28.405Z,100370.73
2022-11-24T16:26:31.373Z,100369.36
2022-11-24T16:31:34.610Z,100376.16
2022-11-24T16:36:37.450Z,100380.33
2022-11-24T16:41:40.536Z,100387.48
2022-11-24T16:46:43.354Z,100395.35
2022-11-24T16:51:46.212Z,100404.33
2022-11-24T16:56:49.178Z,100412.36
2022-11-24T17:01:55.252Z,100412.55
2022-11-24T17:06:58.580Z,100419.95
2022-11-24T17:12:01.463Z,100420.94
2022-11-24T17:17:04.348Z,100420.52
2022-11-24T17:22:07.294Z,100425.27
2022-11-24T17:27:10.530Z,100426.33
2022-11-24T17:32:13.550Z,100434.95
2022-11-24T17:37:16.458Z,100433.66
2022-11-24T17:42:19.338Z,100441.65
2022-11-24T17:47:22.240Z,100451.80
2022-11-24T17:52:26.056Z,100455.34
2022-11-24T17:57:28.979Z,100466.83
2022-11-24T18:02:32.343Z,100473.73
2022-11-24T18:07:36.713Z,100469.34
2022-11-24T18:12:39.751Z,100465.71
2022-11-24T18:17:42.594Z,100466.55
2022-11-24T18:28:08.590Z,100468.69
2022-11-24T18:33:11.511Z,100468.52
2022-11-24T18:38:14.376Z,100474.20
2022-11-24T18:43:17.299Z,100468.12
2022-11-24T18:48:25.028Z,100467.19
2022-11-24T18:53:29.041Z,100467.09
2022-11-24T18:58:33.770Z,100472.18
2022-11-24T19:03:42.323Z,100475.78
2022-11-24T19:08:48.491Z,100468.85
2022-11-24T19:13:51.638Z,100473.03
2022-11-24T19:19:02.738Z,100474.59
2022-11-24T19:24:07.793Z,100477.50
2022-11-24T19:29:10.574Z,100479.84
2022-11-24T19:34:14.974Z,100487.22
2022-11-24T19:39:17.929Z,100486.66
2022-11-24T19:44:20.803Z,100490.07
2022-11-24T19:49:23.608Z,100487.37
2022-11-24T19:54:26.446Z,100486.76
2022-11-24T19:59:29.688Z,100495.13
2022-11-24T20:04:33.727Z,100499.04
2022-11-24T20:09:36.783Z,100505.16
2022-11-24T20:14:39.604Z,100513.52
2022-11-24T20:19:42.993Z,100517.91
2022-11-24T20:24:46.331Z,100520.56
2022-11-24T20:29:49.206Z,100525.23
2022-11-24T20:34:52.364Z,100526.98
2022-11-24T20:39:57.931Z,100532.56
2022-11-24T20:45:01.069Z,100542.56
2022-11-24T20:50:04.502Z,100546.54
2022-11-24T20:55:07.945Z,100553.64
2022-11-24T21:00:12.183Z,100556.52
2022-11-24T21:05:15.095Z,100555.72
2022-11-24T21:10:18.819Z,100564.54
2022-11-24T21:15:23.789Z,100565.52
2022-11-24T21:20:26.565Z,100564.85
2022-11-24T21:25:30.311Z,100564.77
2022-11-24T21:30:34.632Z,100569.74
2022-11-24T21:35:37.580Z,100567.14
2022-11-24T21:40:40.437Z,100568.39
2022-11-24T21:45:43.306Z,100571.55
2022-11-24T21:50:46.226Z,100579.21
2022-11-24T21:55:56.936Z,100583.41
2022-11-24T22:01:10.170Z,100578.46
2022-11-24T22:06:13.284Z,100582.79
2022-11-24T22:11:22.094Z,100586.52
2022-11-24T22:16:25.721Z,100588.30
2022-11-24T22:21:30.685Z,100587.66
2022-11-24T22:26:33.521Z,100587.09
2022-11-24T22:31:36.377Z,100586.27
2022-11-24T22:36:39.252Z,100586.36
2022-11-24T22:41:41.995Z,100579.70
2022-11-24T22:46:44.821Z,100593.70
2022-11-24T22:51:47.742Z,100602.23
2022-11-24T22:56:50.626Z,100612.21
2022-11-24T23:01:53.412Z,100609.60
2022-11-24T23:06:56.234Z,100609.02
2022-11-24T23:11:59.040Z,100610.16
2022-11-24T23:17:01.867Z,100610.23
2022-11-24T23:22:04.707Z,100615.48
2022-11-24T23:27:07.476Z,100615.66
2022-11-24T23:32:10.254Z,100613.95
2022-11-24T23:37:13.036Z,100616.11
2022-11-24T23:42:15.878Z,100618.42
2022-11-24T23:47:18.649Z,100617.02
2022-11-24T23:52:21.439Z,100612.88
2022-11-24T23:57:24.934Z,100614.74
